Pagina principale
METAR-TAF:

METAR-TAF

Aeroporti :

Base di Solenzara

Solenzara, Francia

latitudine: 41-55N, longitudine: 009-24E, altezza: 8 m

Osservazione

Il bollettino è stato emesso 38 minuti fa, alle 13:00 UTC
Vento 10 kt da sud/sud-est
Temperature 16°C
Umidità 63%
Pressione 1009 hPa
Visibilità 10 km o più
nessuna nube inferiore a 1500 m e nessun cumulonembo

METAR: LFKS 211300Z AUTO 15010KT CAVOK 16/09 Q1009

Ora: 14:38 (13:38 UTC)

Previsione

Il bollettino è stato emesso 5 ore e 38 minuti fa, alle 08:00 UTC
Previsione valida dal 21 alle 09 UTC al 22 alle 09 UTC
Vento 5 kt da ovest
Visibilità 10 km o più
nessuna nube inferiore a 1500 m e nessun cumulonembo
Evoluzione graduale
dal 21 alle 10 UTC al 21 alle 12 UTC
Vento 10 kt da sud/sud-est
Evoluzione graduale
dal 21 alle 16 UTC al 21 alle 18 UTC
Vento 5 kt da ovest

TAF: LFKS 210800Z 2109/2209 27005KT CAVOK BECMG 2110/2112 16010KT BECMG 2116/2118 27005KT

Osservazioni e previsioni meteorologiche di più di 4000 aeroporti (messaggi METAR e TAF).

Le stazioni disponibili sono rappresentate dai dischi gialli e rossi sulla carta.

Puntare il mouse per vedere il nome della stazione.

Clicca sopra per visualizzare le osservazioni e previsioni meteorologiche.

Per cambiare la mappa : fare clic sui pulsanti verdi con una croce nera per ingrandire, il pulsante verde con un trattino per diminuire, o sulla freccia verde per le mappe adiacenti.


METAR-TAF: